Time;durP1;ratioP1;P1;durP2;ratioP2;P2;SDS_P1;SDS_P2;PMS_P1;PMS_P2;Temp;Humidity;BMP_temperature;BMP_pressure;BME280_temperature;BME280_humidity;BME280_pressure;Samples;Min_cycle;Max_cycle;Signal;HPM_P1;HPM_P2
2021/08/11 00:01:35;;;;;;;2.33;1.97;;;17.60;99.90;;;;;;5029677;28;20564;-71
2021/08/11 00:04:02;;;;;;;2.50;2.30;;;17.70;99.90;;;;;;5029088;28;20213;-71
2021/08/11 00:06:29;;;;;;;3.97;2.30;;;17.80;99.90;;;;;;5029120;28;20240;-71
2021/08/11 00:08:58;;;;;;;2.40;2.20;;;17.90;99.90;;;;;;5029419;28;20264;-71
2021/08/11 00:11:24;;;;;;;2.23;2.13;;;18.00;99.90;;;;;;5029444;28;20205;-71
2021/08/11 00:13:51;;;;;;;2.27;2.00;;;18.00;99.90;;;;;;5029224;28;20259;-71
2021/08/11 00:16:17;;;;;;;2.50;2.30;;;18.00;99.90;;;;;;5029236;28;20228;-70
2021/08/11 00:18:44;;;;;;;4.50;2.37;;;18.00;99.90;;;;;;5029145;28;20255;-71
2021/08/11 00:21:12;;;;;;;3.07;2.77;;;18.10;99.90;;;;;;5029111;28;20205;-71
2021/08/11 00:23:39;;;;;;;3.10;2.60;;;17.90;99.90;;;;;;5029104;28;20229;-71
2021/08/11 00:26:05;;;;;;;2.67;2.43;;;17.90;99.90;;;;;;5029148;28;20235;-71
2021/08/11 00:28:32;;;;;;;4.37;2.57;;;17.90;99.90;;;;;;5029456;28;20212;-71
2021/08/11 00:30:58;;;;;;;2.63;2.43;;;17.90;99.90;;;;;;5028927;28;20208;-71
2021/08/11 00:33:25;;;;;;;5.07;2.47;;;17.90;99.90;;;;;;5029239;28;20243;-71
2021/08/11 00:35:52;;;;;;;2.67;2.47;;;17.90;99.90;;;;;;5028875;28;20275;-71
2021/08/11 00:38:22;;;;;;;3.30;2.43;;;17.90;99.90;;;;;;5028887;28;20212;-71
2021/08/11 00:40:49;;;;;;;2.47;2.27;;;17.90;99.90;;;;;;5028841;28;20203;-71
2021/08/11 00:43:15;;;;;;;4.50;2.60;;;17.90;99.90;;;;;;5028384;28;20858;-71
2021/08/11 00:45:43;;;;;;;2.30;2.20;;;17.90;99.90;;;;;;5028845;28;20246;-71
2021/08/11 00:48:11;;;;;;;3.33;2.60;;;17.90;99.90;;;;;;5028637;28;20632;-71
2021/08/11 00:50:39;;;;;;;2.63;2.43;;;17.90;99.90;;;;;;5028596;28;20212;-70
2021/08/11 00:53:07;;;;;;;3.90;2.50;;;17.80;99.90;;;;;;5028477;28;20299;-71
2021/08/11 00:55:38;;;;;;;3.73;3.10;;;17.80;99.90;;;;;;5028756;28;20208;-71
2021/08/11 00:58:09;;;;;;;2.87;2.67;;;17.70;99.90;;;;;;5028221;28;20290;-71
2021/08/11 01:00:37;;;;;;;3.93;2.83;;;17.60;99.90;;;;;;5028596;28;20216;-70
2021/08/11 01:03:06;;;;;;;5.60;3.30;;;17.70;99.90;;;;;;5028286;28;20212;-70
2021/08/11 01:05:33;;;;;;;3.33;3.10;;;17.60;99.90;;;;;;5028769;28;20641;-70
2021/08/11 01:08:00;;;;;;;4.10;3.80;;;17.60;99.90;;;;;;5028419;28;20220;-70
2021/08/11 01:10:28;;;;;;;4.00;3.70;;;17.60;99.90;;;;;;5028533;28;20240;-70
2021/08/11 01:12:56;;;;;;;4.60;4.03;;;17.60;99.90;;;;;;5028228;28;20244;-70
2021/08/11 01:15:23;;;;;;;4.40;3.93;;;17.50;99.90;;;;;;5028318;28;20318;-70
2021/08/11 01:17:49;;;;;;;4.40;4.10;;;17.60;99.90;;;;;;5028565;28;20236;-70
2021/08/11 01:20:16;;;;;;;4.17;3.87;;;17.60;99.90;;;;;;5027620;28;20659;-70
2021/08/11 01:22:47;;;;;;;4.50;4.17;;;17.70;99.90;;;;;;5028210;28;20284;-70
2021/08/11 01:25:19;;;;;;;4.37;4.07;;;17.70;99.90;;;;;;5028280;28;20205;-70
2021/08/11 01:28:19;;;;;;;5.13;4.40;;;17.70;99.90;;;;;;5028193;28;20671;-70
2021/08/11 01:30:53;;;;;;;6.73;4.53;;;17.70;99.90;;;;;;5028443;28;20197;-70
2021/08/11 01:33:31;;;;;;;5.00;4.60;;;17.70;99.90;;;;;;5028293;28;20193;-70
2021/08/11 01:36:00;;;;;;;4.60;4.20;;;17.50;99.90;;;;;;5028185;28;20244;-70
2021/08/11 01:38:30;;;;;;;5.20;4.67;;;17.60;99.90;;;;;;5028402;28;20248;-70
2021/08/11 01:41:02;;;;;;;5.00;4.60;;;17.60;99.90;;;;;;5028473;28;20266;-70
2021/08/11 01:43:34;;;;;;;4.67;4.27;;;17.60;99.90;;;;;;5028348;28;20197;-70
2021/08/11 01:46:01;;;;;;;5.00;4.47;;;17.60;99.90;;;;;;5027784;28;20601;-70
2021/08/11 01:48:31;;;;;;;7.87;4.33;;;17.60;99.90;;;;;;5028011;28;20205;-70
2021/08/11 01:50:59;;;;;;;5.93;4.30;;;17.60;99.90;;;;;;5027983;28;20205;-70
2021/08/11 01:53:27;;;;;;;4.83;4.43;;;17.60;99.90;;;;;;5027904;28;20246;-70
2021/08/11 01:55:56;;;;;;;5.10;4.70;;;17.60;99.90;;;;;;5028055;28;20221;-70
2021/08/11 01:58:23;;;;;;;4.70;4.30;;;17.60;99.90;;;;;;5027717;28;20237;-70
2021/08/11 02:00:50;;;;;;;4.97;4.47;;;17.60;99.90;;;;;;5027973;28;20233;-70
2021/08/11 02:03:20;;;;;;;5.50;4.43;;;17.60;99.90;;;;;;5027849;28;20236;-70
2021/08/11 02:05:48;;;;;;;4.80;4.40;;;17.50;99.90;;;;;;5027883;28;20219;-70
2021/08/11 02:08:16;;;;;;;4.60;4.20;;;17.50;99.90;;;;;;5027962;28;20665;-70
2021/08/11 02:10:43;;;;;;;5.20;4.70;;;17.50;99.90;;;;;;5028021;28;20209;-70
2021/08/11 02:13:10;;;;;;;5.43;4.93;;;17.40;99.90;;;;;;5027475;28;20595;-70
2021/08/11 02:15:37;;;;;;;5.70;5.03;;;17.10;99.90;;;;;;5028117;28;20204;-70
2021/08/11 02:18:04;;;;;;;6.80;5.30;;;16.90;99.90;;;;;;5027637;28;20232;-70
2021/08/11 02:20:31;;;;;;;6.23;5.37;;;16.90;99.90;;;;;;5027858;28;20272;-70
2021/08/11 02:22:59;;;;;;;5.10;4.70;;;16.70;99.90;;;;;;5027620;28;20295;-70
2021/08/11 02:25:26;;;;;;;5.90;5.40;;;16.70;99.90;;;;;;5027848;28;20255;-70
2021/08/11 02:27:59;;;;;;;7.00;5.87;;;16.50;99.90;;;;;;5027347;28;20667;-70
2021/08/11 02:30:30;;;;;;;6.23;5.67;;;16.60;99.90;;;;;;5027859;28;20251;-70
2021/08/11 02:33:03;;;;;;;5.87;5.47;;;16.50;99.90;;;;;;5031261;28;20267;-70
2021/08/11 02:35:33;;;;;;;6.63;6.03;;;16.40;99.90;;;;;;5031171;28;20189;-70
2021/08/11 02:38:04;;;;;;;6.93;6.37;;;16.40;99.90;;;;;;5031071;28;20321;-70
2021/08/11 02:40:36;;;;;;;6.07;5.53;;;16.50;99.90;;;;;;5031128;28;20255;-70
2021/08/11 02:43:07;;;;;;;10.47;6.40;;;16.40;99.90;;;;;;5031010;28;20212;-70
2021/08/11 02:45:38;;;;;;;7.00;6.40;;;16.30;99.90;;;;;;5031036;28;20204;-70
2021/08/11 02:48:06;;;;;;;8.80;6.77;;;16.30;99.90;;;;;;5030860;28;20232;-70
2021/08/11 02:50:33;;;;;;;7.30;6.67;;;16.20;99.90;;;;;;5031044;28;20205;-70
2021/08/11 02:53:02;;;;;;;7.37;6.70;;;16.30;99.90;;;;;;5030865;28;20208;-70
2021/08/11 02:55:29;;;;;;;7.47;6.73;;;16.40;99.90;;;;;;5030810;28;20243;-70
2021/08/11 02:57:57;;;;;;;7.77;6.70;;;16.30;99.90;;;;;;5030418;28;20264;-71
2021/08/11 03:00:24;;;;;;;7.23;6.63;;;16.30;99.90;;;;;;5030690;28;20223;-70
2021/08/11 03:02:51;;;;;;;7.70;7.07;;;16.40;99.90;;;;;;5030963;28;20267;-70
2021/08/11 03:05:18;;;;;;;6.87;6.37;;;16.30;99.90;;;;;;5030673;28;20258;-70
2021/08/11 03:07:45;;;;;;;7.03;6.50;;;16.30;99.90;;;;;;5030707;28;20204;-70
2021/08/11 03:10:13;;;;;;;7.30;6.70;;;16.40;99.90;;;;;;5030468;28;20232;-70
2021/08/11 03:12:43;;;;;;;6.57;6.17;;;16.50;99.90;;;;;;5030449;28;20251;-70
2021/08/11 03:15:10;;;;;;;7.10;6.60;;;16.40;99.90;;;;;;5030202;28;20789;-70
2021/08/11 03:17:38;;;;;;;7.13;6.50;;;16.40;99.90;;;;;;5030504;28;20272;-70
2021/08/11 03:20:06;;;;;;;6.57;6.07;;;16.40;99.90;;;;;;5030172;28;20240;-71
2021/08/11 03:22:33;;;;;;;6.67;6.17;;;16.40;99.90;;;;;;5030180;28;20314;-71
2021/08/11 03:25:00;;;;;;;6.93;6.43;;;16.50;99.90;;;;;;5030348;28;20208;-70
2021/08/11 03:27:28;;;;;;;7.00;6.40;;;16.60;99.90;;;;;;5030424;28;20251;-70
2021/08/11 03:29:54;;;;;;;7.30;6.67;;;16.60;99.90;;;;;;5030142;28;20213;-70
2021/08/11 03:32:21;;;;;;;7.53;6.83;;;16.60;99.90;;;;;;5030149;28;20236;-70
2021/08/11 03:34:47;;;;;;;7.00;6.10;;;16.60;99.90;;;;;;5030391;28;20258;-70
2021/08/11 03:37:16;;;;;;;7.27;6.70;;;16.70;99.90;;;;;;5029867;28;20264;-70
2021/08/11 03:39:43;;;;;;;7.87;7.17;;;16.60;99.90;;;;;;5030068;28;20256;-70
2021/08/11 03:42:10;;;;;;;6.50;5.90;;;16.50;99.90;;;;;;5029474;28;20244;-70
2021/08/11 03:44:38;;;;;;;6.50;6.00;;;16.40;99.90;;;;;;5029938;28;20575;-71
2021/08/11 03:47:05;;;;;;;6.90;6.30;;;16.60;99.90;;;;;;5029469;28;20249;-70
2021/08/11 03:49:32;;;;;;;6.90;6.40;;;16.60;99.90;;;;;;5029911;28;20205;-70
2021/08/11 03:51:59;;;;;;;6.30;5.80;;;16.60;99.90;;;;;;5029885;28;20263;-70
2021/08/11 03:54:25;;;;;;;6.73;6.33;;;16.60;99.90;;;;;;5029565;28;20997;-70
2021/08/11 03:56:52;;;;;;;6.97;6.27;;;16.70;99.90;;;;;;5029657;28;20221;-70
2021/08/11 03:59:21;;;;;;;7.47;6.83;;;16.70;99.90;;;;;;5029281;28;20260;-70
2021/08/11 04:01:51;;;;;;;6.87;6.37;;;16.60;99.90;;;;;;5029845;28;20624;-70
2021/08/11 04:04:18;;;;;;;7.20;6.63;;;16.60;99.90;;;;;;5029206;28;20745;-70
2021/08/11 04:06:44;;;;;;;7.57;6.93;;;16.60;99.90;;;;;;5029620;28;20240;-71
2021/08/11 04:09:11;;;;;;;6.60;6.13;;;16.60;99.90;;;;;;5029458;28;20209;-70
2021/08/11 04:11:37;;;;;;;7.10;6.60;;;16.70;99.90;;;;;;5029377;28;20205;-70
2021/08/11 04:14:04;;;;;;;7.50;6.90;;;16.70;99.90;;;;;;5029224;28;20232;-70
2021/08/11 04:16:31;;;;;;;7.90;7.00;;;16.70;99.90;;;;;;5029426;28;20251;-70
2021/08/11 04:18:59;;;;;;;7.27;6.77;;;16.70;99.90;;;;;;5029247;28;20272;-70
2021/08/11 04:21:25;;;;;;;7.87;7.23;;;16.70;99.90;;;;;;5029158;28;20267;-70
2021/08/11 04:23:52;;;;;;;8.23;7.53;;;16.70;99.90;;;;;;5029539;28;20205;-70
2021/08/11 04:26:18;;;;;;;8.77;7.97;;;16.60;99.90;;;;;;5028957;28;20258;-70
2021/08/11 04:28:45;;;;;;;8.20;7.50;;;16.60;99.90;;;;;;5029170;28;20213;-70
2021/08/11 04:31:12;;;;;;;7.80;7.20;;;16.70;99.90;;;;;;5028950;28;20213;-70
2021/08/11 04:33:39;;;;;;;8.53;7.73;;;16.70;99.90;;;;;;5029110;28;20295;-70
2021/08/11 04:36:06;;;;;;;7.63;7.03;;;16.70;99.90;;;;;;5028763;28;20213;-70
2021/08/11 04:38:33;;;;;;;8.20;7.50;;;16.70;99.90;;;;;;5028883;28;20283;-70
2021/08/11 04:41:00;;;;;;;8.40;7.70;;;16.70;99.90;;;;;;5028799;28;20204;-70
2021/08/11 04:43:27;;;;;;;8.80;7.70;;;16.80;99.90;;;;;;5028695;28;20282;-70
2021/08/11 04:45:53;;;;;;;8.57;7.70;;;16.70;99.90;;;;;;5028913;28;20668;-70
2021/08/11 04:48:20;;;;;;;9.80;7.70;;;16.70;99.90;;;;;;5028420;28;20732;-70
2021/08/11 04:50:47;;;;;;;8.37;7.63;;;16.50;99.90;;;;;;5028925;28;20209;-70
2021/08/11 04:53:15;;;;;;;8.40;7.70;;;16.40;99.90;;;;;;5028227;28;20224;-70
2021/08/11 04:55:41;;;;;;;9.27;8.23;;;16.40;99.90;;;;;;5027956;28;20577;-71
2021/08/11 04:58:08;;;;;;;8.97;8.10;;;16.40;99.90;;;;;;5028022;28;20302;-70
2021/08/11 05:00:35;;;;;;;9.77;8.23;;;16.50;99.90;;;;;;5028404;28;20197;-71
2021/08/11 05:03:01;;;;;;;9.30;8.40;;;16.50;99.90;;;;;;5028442;28;20244;-70
2021/08/11 05:05:28;;;;;;;8.63;7.93;;;16.30;99.90;;;;;;5028360;28;20258;-70
2021/08/11 05:07:54;;;;;;;9.70;8.83;;;16.20;99.90;;;;;;5028528;28;20204;-70
2021/08/11 05:10:22;;;;;;;9.77;8.77;;;16.10;99.90;;;;;;5028395;28;20279;-70
2021/08/11 05:12:49;;;;;;;10.40;9.30;;;16.00;99.90;;;;;;5028228;28;20201;-69
2021/08/11 05:15:16;;;;;;;10.20;9.20;;;16.00;99.90;;;;;;5027973;28;20213;-70
2021/08/11 05:17:42;;;;;;;10.97;9.27;;;15.90;99.90;;;;;;5028507;28;20278;-70
2021/08/11 05:20:10;;;;;;;9.37;8.57;;;15.90;99.90;;;;;;5027985;28;20270;-70
2021/08/11 05:22:37;;;;;;;10.60;8.63;;;16.00;99.90;;;;;;5028101;28;20229;-70
2021/08/11 05:25:04;;;;;;;10.07;9.00;;;16.10;99.90;;;;;;5028355;28;20279;-70
2021/08/11 05:27:32;;;;;;;9.40;8.30;;;16.20;99.90;;;;;;5027799;28;20209;-70
2021/08/11 05:29:59;;;;;;;9.73;8.83;;;16.30;99.90;;;;;;5028229;28;20231;-70
2021/08/11 05:32:25;;;;;;;9.83;8.93;;;16.40;99.90;;;;;;5028206;28;20302;-71
2021/08/11 05:34:52;;;;;;;9.73;8.83;;;16.40;99.90;;;;;;5028381;28;20278;-71
2021/08/11 05:37:18;;;;;;;10.13;9.33;;;16.40;99.90;;;;;;5027741;28;20683;-70
2021/08/11 05:39:45;;;;;;;11.97;9.83;;;16.30;99.90;;;;;;5028313;28;20236;-70
2021/08/11 05:42:14;;;;;;;11.60;10.50;;;16.20;99.90;;;;;;5027945;28;20254;-70
2021/08/11 05:44:42;;;;;;;11.57;10.47;;;16.10;99.90;;;;;;5028031;28;20251;-70
2021/08/11 05:47:11;;;;;;;11.57;10.53;;;16.10;99.90;;;;;;5027910;28;20205;-70
2021/08/11 05:49:38;;;;;;;12.40;11.17;;;16.10;99.90;;;;;;5027994;28;20271;-71
2021/08/11 05:52:05;;;;;;;11.90;10.70;;;16.10;99.90;;;;;;5028066;28;20236;-71
2021/08/11 05:54:32;;;;;;;12.07;11.03;;;16.10;99.90;;;;;;5027918;28;20213;-71
2021/08/11 05:56:59;;;;;;;12.03;10.87;;;16.00;99.90;;;;;;5027891;28;20326;-71
2021/08/11 05:59:26;;;;;;;11.73;10.70;;;16.00;99.90;;;;;;5027259;28;20390;-71
2021/08/11 06:01:54;;;;;;;11.73;10.63;;;16.00;99.90;;;;;;5027994;28;20243;-70
2021/08/11 06:04:22;;;;;;;15.77;11.50;;;16.10;99.90;;;;;;5027994;28;20204;-71
2021/08/11 06:06:49;;;;;;;13.70;12.40;;;16.20;99.90;;;;;;5031397;28;20205;-71
2021/08/11 06:09:16;;;;;;;12.17;11.00;;;16.30;99.90;;;;;;5031591;28;20217;-71
2021/08/11 06:11:43;;;;;;;11.97;10.70;;;16.20;99.90;;;;;;5031573;28;20259;-71
2021/08/11 06:14:09;;;;;;;11.87;10.83;;;16.20;99.90;;;;;;5031609;28;20255;-71
2021/08/11 06:16:37;;;;;;;13.10;11.80;;;16.10;99.90;;;;;;5031613;28;20239;-71
2021/08/11 06:19:05;;;;;;;13.27;11.87;;;16.10;99.90;;;;;;5031358;28;20236;-71
2021/08/11 06:21:32;;;;;;;13.10;11.73;;;16.20;99.90;;;;;;5031313;28;20229;-71
2021/08/11 06:23:58;;;;;;;13.50;12.10;;;16.30;99.90;;;;;;5031442;28;20205;-71
2021/08/11 06:26:25;;;;;;;12.43;11.20;;;16.40;99.90;;;;;;5031413;28;20270;-71
2021/08/11 06:28:52;;;;;;;12.17;10.97;;;16.50;99.90;;;;;;5031280;28;20208;-70
2021/08/11 06:31:20;;;;;;;13.40;11.73;;;16.50;99.90;;;;;;5031277;28;20288;-71
2021/08/11 06:33:47;;;;;;;14.77;12.33;;;16.50;99.90;;;;;;5031323;28;20209;-71
2021/08/11 06:36:15;;;;;;;15.03;13.50;;;16.70;99.90;;;;;;5031075;28;20200;-71
2021/08/11 06:38:43;;;;;;;13.20;11.97;;;16.70;99.90;;;;;;5030640;28;20727;-71
2021/08/11 06:41:15;;;;;;;13.43;11.60;;;16.70;99.90;;;;;;5031103;28;20274;-71
2021/08/11 06:43:42;;;;;;;14.73;11.40;;;16.70;99.90;;;;;;5031170;28;20193;-71
2021/08/11 06:46:09;;;;;;;13.23;11.93;;;16.70;99.90;;;;;;5031036;28;20263;-71
2021/08/11 06:48:36;;;;;;;12.00;10.87;;;16.80;99.90;;;;;;5030878;28;20200;-71
2021/08/11 06:51:02;;;;;;;15.60;12.23;;;16.90;99.90;;;;;;5031182;28;20283;-71
2021/08/11 06:53:30;;;;;;;15.13;12.53;;;16.80;99.90;;;;;;5030922;28;20275;-71
2021/08/11 06:55:57;;;;;;;13.17;11.73;;;16.70;99.90;;;;;;5030912;28;20228;-71
2021/08/11 06:58:24;;;;;;;12.53;11.30;;;16.80;99.90;;;;;;5030443;28;20241;-71
2021/08/11 07:00:52;;;;;;;13.03;11.73;;;16.90;99.90;;;;;;5030870;28;20751;-71
2021/08/11 07:03:19;;;;;;;12.60;11.50;;;16.80;99.90;;;;;;5030564;28;20304;-71
2021/08/11 07:05:45;;;;;;;14.33;12.60;;;16.70;99.90;;;;;;5030754;28;20568;-71
2021/08/11 07:08:12;;;;;;;14.37;13.03;;;16.70;99.90;;;;;;5030267;28;20244;-71
2021/08/11 07:10:40;;;;;;;14.40;13.00;;;16.60;99.90;;;;;;5030815;28;20247;-71
2021/08/11 07:13:07;;;;;;;14.83;13.43;;;16.80;99.90;;;;;;5030028;28;21133;-71
2021/08/11 07:15:33;;;;;;;15.07;13.43;;;16.90;99.90;;;;;;5030285;28;20306;-71
2021/08/11 07:18:00;;;;;;;15.13;13.77;;;16.80;99.90;;;;;;5029509;28;20291;-71
2021/08/11 07:20:29;;;;;;;15.57;13.90;;;16.80;99.90;;;;;;5030360;28;20232;-71
2021/08/11 07:22:58;;;;;;;17.27;13.23;;;16.80;99.90;;;;;;5029983;28;20224;-71
2021/08/11 07:25:25;;;;;;;16.33;14.93;;;16.90;99.90;;;;;;5030224;28;20209;-71
2021/08/11 07:27:53;;;;;;;15.60;14.20;;;16.90;99.90;;;;;;5030374;28;20270;-71
2021/08/11 07:30:20;;;;;;;14.43;12.90;;;16.90;99.90;;;;;;5029992;28;20236;-71
2021/08/11 07:32:47;;;;;;;13.77;12.30;;;17.20;99.90;;;;;;5030344;28;20842;-71
2021/08/11 07:35:14;;;;;;;13.40;12.20;;;17.30;99.90;;;;;;5030024;28;20219;-71
2021/08/11 07:37:48;;;;;;;13.10;11.80;;;17.40;99.90;;;;;;5030133;28;20252;-70
2021/08/11 07:40:15;;;;;;;13.73;12.53;;;17.20;99.90;;;;;;5029832;28;20255;-71
2021/08/11 07:42:43;;;;;;;13.47;12.13;;;17.20;99.90;;;;;;5029750;28;20213;-71
2021/08/11 07:45:13;;;;;;;14.33;13.03;;;17.30;99.90;;;;;;5030098;28;20266;-71
2021/08/11 07:47:40;;;;;;;15.13;13.70;;;17.40;99.90;;;;;;5029733;28;20193;-71
2021/08/11 07:50:08;;;;;;;12.83;11.67;;;17.40;99.90;;;;;;5029841;28;20263;-71
2021/08/11 07:52:35;;;;;;;14.93;13.03;;;17.30;99.90;;;;;;5029840;28;20258;-71
2021/08/11 07:55:01;;;;;;;13.20;12.00;;;17.40;99.90;;;;;;5029760;28;20240;-71
2021/08/11 07:57:28;;;;;;;12.20;11.17;;;17.50;99.90;;;;;;5029442;28;20224;-71
2021/08/11 07:59:54;;;;;;;13.23;11.93;;;17.60;99.90;;;;;;5029052;28;20244;-71
2021/08/11 08:02:22;;;;;;;12.03;10.87;;;17.50;99.90;;;;;;5029479;28;20240;-71
2021/08/11 08:04:49;;;;;;;10.57;9.57;;;17.50;99.90;;;;;;5029025;28;20663;-71
2021/08/11 08:07:15;;;;;;;12.67;11.47;;;17.70;99.90;;;;;;5028822;28;20306;-71
2021/08/11 08:09:42;;;;;;;10.83;9.80;;;17.80;99.90;;;;;;5029039;28;20635;-71
2021/08/11 08:12:09;;;;;;;11.67;10.57;;;18.00;99.90;;;;;;5029628;28;20632;-71
2021/08/11 08:14:36;;;;;;;12.50;11.30;;;18.00;99.90;;;;;;5029352;28;20228;-71
2021/08/11 08:17:03;;;;;;;10.90;9.80;;;18.00;99.90;;;;;;5029814;28;20213;-71
2021/08/11 08:19:31;;;;;;;10.60;9.67;;;17.90;99.90;;;;;;5029173;28;20228;-71
2021/08/11 08:21:58;;;;;;;11.10;9.43;;;17.90;99.90;;;;;;5028909;28;20264;-71
2021/08/11 08:24:24;;;;;;;12.20;10.07;;;18.00;99.90;;;;;;5029025;28;20777;-71
2021/08/11 08:26:51;;;;;;;10.47;9.43;;;18.20;99.90;;;;;;5029072;28;20232;-71
2021/08/11 08:29:18;;;;;;;8.23;7.53;;;18.20;99.90;;;;;;5027872;28;20279;-71
2021/08/11 08:31:44;;;;;;;8.80;7.90;;;18.10;99.90;;;;;;5028808;28;20303;-70
2021/08/11 08:34:11;;;;;;;8.10;7.30;;;18.10;99.90;;;;;;5028721;28;20289;-70
2021/08/11 08:36:38;;;;;;;8.63;7.87;;;18.20;99.90;;;;;;5028663;28;20282;-70
2021/08/11 08:39:05;;;;;;;8.47;7.73;;;18.20;99.90;;;;;;5028641;28;20519;-70
2021/08/11 08:41:32;;;;;;;7.90;7.20;;;18.20;99.90;;;;;;5028474;28;20227;-70
2021/08/11 08:43:59;;;;;;;7.83;7.07;;;18.20;99.90;;;;;;5028578;28;20270;-70
2021/08/11 08:46:27;;;;;;;7.53;6.83;;;18.50;99.90;;;;;;5028222;28;20727;-71
2021/08/11 08:48:54;;;;;;;6.83;6.23;;;18.60;99.90;;;;;;5028342;28;20682;-71
2021/08/11 08:51:23;;;;;;;7.83;7.10;;;18.70;99.90;;;;;;5028521;28;20577;-71
2021/08/11 08:53:51;;;;;;;7.07;6.37;;;18.60;99.90;;;;;;5028682;28;20237;-72
2021/08/11 08:56:18;;;;;;;6.80;6.20;;;18.60;99.90;;;;;;5028541;28;20286;-71
2021/08/11 08:58:45;;;;;;;6.80;6.07;;;18.70;99.90;;;;;;5028124;28;20240;-71
2021/08/11 09:01:12;;;;;;;6.10;5.60;;;18.80;99.90;;;;;;5028573;28;20553;-71
2021/08/11 09:03:38;;;;;;;5.50;5.00;;;18.80;99.90;;;;;;5028220;28;20220;-71
2021/08/11 09:06:05;;;;;;;5.73;5.13;;;18.80;99.90;;;;;;5027885;28;20263;-71
2021/08/11 09:08:31;;;;;;;5.80;5.33;;;18.70;99.90;;;;;;5028286;28;20200;-71
2021/08/11 09:11:13;;;;;;;5.27;4.80;;;18.90;99.90;;;;;;5028405;28;20271;-71
2021/08/11 09:13:40;;;;;;;4.97;4.53;;;18.90;99.90;;;;;;5027010;28;20505;-71
2021/08/11 09:16:07;;;;;;;5.33;4.23;;;19.00;99.90;;;;;;5028332;28;20240;-71
2021/08/11 09:18:33;;;;;;;5.27;4.70;;;19.10;99.90;;;;;;5027996;28;20225;-71
2021/08/11 09:21:11;;;;;;;5.17;4.70;;;19.30;99.90;;;;;;5028175;28;20261;-71
2021/08/11 09:23:40;;;;;;;4.83;4.43;;;19.30;99.90;;;;;;5027856;28;20204;-70
2021/08/11 09:26:09;;;;;;;5.30;4.80;;;19.30;99.90;;;;;;5028353;28;20239;-71
2021/08/11 09:28:38;;;;;;;6.30;5.20;;;19.30;99.90;;;;;;5027524;28;20209;-71
2021/08/11 09:31:22;;;;;;;6.00;5.30;;;19.20;99.90;;;;;;5027808;28;20282;-71
2021/08/11 09:33:51;;;;;;;4.53;4.13;;;19.20;99.90;;;;;;5028090;28;20208;-70
2021/08/11 09:36:17;;;;;;;4.77;4.37;;;19.20;99.90;;;;;;5028226;28;20212;-70
2021/08/11 09:38:58;;;;;;;7.10;4.90;;;19.30;99.90;;;;;;5027945;28;20220;-70
2021/08/11 09:41:26;;;;;;;4.20;3.90;;;19.50;99.90;;;;;;5031038;28;20220;-70
2021/08/11 09:44:05;;;;;;;3.77;3.47;;;19.60;99.90;;;;;;5032114;28;20209;-72
2021/08/11 09:46:32;;;;;;;3.80;3.43;;;19.70;99.90;;;;;;5032098;28;20197;-70
2021/08/11 09:48:59;;;;;;;3.83;3.53;;;19.80;99.90;;;;;;5032094;28;20205;-70
2021/08/11 09:51:26;;;;;;;4.73;3.73;;;19.90;99.90;;;;;;5031994;28;20208;-70
2021/08/11 09:53:52;;;;;;;4.23;3.23;;;20.10;99.90;;;;;;5032044;28;20235;-71
2021/08/11 09:56:19;;;;;;;4.50;3.90;;;20.20;99.90;;;;;;5031722;28;20711;-70
2021/08/11 09:59:01;;;;;;;3.77;3.47;;;20.20;99.90;;;;;;5031510;28;20287;-70
2021/08/11 10:01:28;;;;;;;5.37;4.97;;;20.20;99.90;;;;;;5031343;28;20647;-70
2021/08/11 10:03:58;;;;;;;4.33;4.00;;;20.10;99.90;;;;;;5031845;28;20204;-70
2021/08/11 10:06:26;;;;;;;3.53;3.23;;;19.90;99.90;;;;;;5031688;28;20732;-70
2021/08/11 10:08:53;;;;;;;4.53;4.20;;;19.70;99.90;;;;;;5031938;28;20265;-70
2021/08/11 10:11:36;;;;;;;4.07;3.37;;;19.70;99.90;;;;;;5031559;28;20236;-70
2021/08/11 10:14:04;;;;;;;4.07;3.17;;;19.80;99.90;;;;;;5031687;28;20229;-71
2021/08/11 10:16:35;;;;;;;3.47;3.17;;;20.00;99.90;;;;;;5031294;28;20216;-71
2021/08/11 10:19:03;;;;;;;3.50;3.00;;;20.10;99.90;;;;;;5031462;28;20243;-70
2021/08/11 10:21:33;;;;;;;3.20;2.93;;;20.30;99.90;;;;;;5030937;28;20730;-70
2021/08/11 10:24:01;;;;;;;2.70;2.50;;;20.40;99.90;;;;;;5031980;28;20263;-70
2021/08/11 10:26:28;;;;;;;3.07;2.47;;;20.60;99.90;;;;;;5031338;28;20213;-70
2021/08/11 10:28:55;;;;;;;3.03;2.77;;;20.80;99.90;;;;;;5031231;28;20208;-70
2021/08/11 10:31:24;;;;;;;4.90;3.23;;;20.90;99.90;;;;;;5031002;28;20726;-70
2021/08/11 10:33:52;;;;;;;3.10;2.73;;;21.10;99.90;;;;;;5031045;28;20267;-70
2021/08/11 10:36:20;;;;;;;4.13;3.30;;;21.20;99.90;;;;;;5031142;28;20236;-71
2021/08/11 10:38:48;;;;;;;4.47;4.07;;;21.40;99.90;;;;;;5030846;28;20705;-70
2021/08/11 10:41:15;;;;;;;3.03;2.83;;;21.20;99.90;;;;;;5031255;28;20209;-70
2021/08/11 10:43:43;;;;;;;3.40;3.17;;;20.90;99.90;;;;;;5030963;28;20227;-71
2021/08/11 10:46:14;;;;;;;3.33;3.10;;;20.80;99.90;;;;;;5031058;28;20259;-70
2021/08/11 10:48:42;;;;;;;4.13;3.70;;;20.80;99.90;;;;;;5031125;28;20201;-71
2021/08/11 10:51:09;;;;;;;3.23;3.00;;;21.00;99.90;;;;;;5030658;28;20212;-70
2021/08/11 10:53:35;;;;;;;3.53;3.33;;;21.10;99.90;;;;;;5030029;28;20703;-71
2021/08/11 10:56:02;;;;;;;3.00;2.80;;;21.40;99.90;;;;;;5030781;28;20267;-71
2021/08/11 10:58:40;;;;;;;3.40;3.20;;;21.50;99.90;;;;;;5030431;28;20259;-71
2021/08/11 11:01:28;;;;;;;3.80;3.50;;;21.50;99.90;;;;;;5030680;28;20235;-71
2021/08/11 11:03:55;;;;;;;3.20;3.00;;;21.60;99.90;;;;;;5030695;28;20197;-71
2021/08/11 11:06:22;;;;;;;3.43;3.20;;;21.80;99.90;;;;;;5030349;28;20240;-71
2021/08/11 11:08:51;;;;;;;3.20;3.00;;;22.10;99.90;;;;;;5030734;28;20236;-71
2021/08/11 11:11:34;;;;;;;3.35;3.15;;;22.50;99.90;;;;;;5030271;28;20825;-71
2021/08/11 11:14:01;;;;;;;3.97;3.13;;;22.90;99.90;;;;;;5030726;28;20261;-71
2021/08/11 11:17:07;;;;;;;3.33;3.03;;;23.00;99.90;;;;;;5030386;28;20263;-71
2021/08/11 11:19:55;;;;;;;3.28;3.08;;;23.10;99.90;;;;;;4968763;28;20267;-71
2021/08/11 11:22:35;;;;;;;3.85;3.47;;;23.10;99.90;;;;;;5027628;28;20560;-71
2021/08/11 11:25:01;;;;;;;3.40;3.10;;;23.30;99.90;;;;;;5030109;28;20217;-70
2021/08/11 11:27:58;;;;;;;4.13;3.83;;;23.20;99.90;;;;;;5030039;28;20298;-70
2021/08/11 11:30:38;;;;;;;3.50;3.20;;;22.90;99.90;;;;;;5030109;28;20308;-70
2021/08/11 11:33:33;;;;;;;3.90;3.25;;;22.80;99.90;;;;;;5030227;28;20204;-70
2021/08/11 11:36:24;;;;;;;4.90;4.60;;;22.60;99.90;;;;;;5030015;28;20205;-70
2021/08/11 11:39:11;;;;;;;4.07;3.78;;;22.10;99.90;;;;;;5030001;28;20208;-70
2021/08/11 11:41:39;;;;;;;4.30;3.83;;;22.00;99.90;;;;;;5029583;28;20670;-70
2021/08/11 11:44:44;;;;;;;4.30;3.95;;;22.30;99.90;;;;;;5029910;28;20299;-70
2021/08/11 11:47:11;;;;;;;4.90;3.38;;;22.70;99.90;;;;;;5029910;28;20208;-70
2021/08/11 11:49:38;;;;;;;3.90;3.50;;;22.90;99.90;;;;;;5029760;28;20208;-70
2021/08/11 11:52:13;;;;;;;3.67;3.38;;;23.00;99.90;;;;;;5029951;28;20209;-70
2021/08/11 11:54:45;;;;;;;3.47;3.20;;;23.20;99.90;;;;;;5029745;28;20206;-70
2021/08/11 11:57:12;;;;;;;3.85;3.55;;;23.20;99.90;;;;;;5029710;28;20236;-70
2021/08/11 11:59:44;;;;;;;3.58;3.38;;;23.20;99.90;;;;;;5028988;28;20744;-70
2021/08/11 12:02:19;;;;;;;4.20;3.90;;;23.40;99.90;;;;;;5029764;28;20284;-70
2021/08/11 12:04:59;;;;;;;3.92;3.67;;;23.60;99.90;;;;;;5029171;28;20686;-70
2021/08/11 12:07:29;;;;;;;4.20;3.80;;;23.70;99.90;;;;;;5029481;28;20196;-70
2021/08/11 12:09:56;;;;;;;3.60;3.30;;;23.80;99.90;;;;;;5029602;28;20279;-70
2021/08/11 12:12:22;;;;;;;3.80;3.50;;;24.00;99.90;;;;;;5029160;28;20694;-70
2021/08/11 12:14:49;;;;;;;3.65;3.35;;;24.10;99.90;;;;;;5029227;28;20550;-70
2021/08/11 12:17:27;;;;;;;4.35;3.85;;;24.00;99.90;;;;;;5029140;28;20233;-70
2021/08/11 12:19:54;;;;;;;3.88;3.50;;;24.00;99.90;;;;;;5029393;28;20228;-70
2021/08/11 12:22:32;;;;;;;3.78;3.40;;;24.10;99.90;;;;;;5028746;28;20671;-70
2021/08/11 12:24:59;;;;;;;3.20;3.00;;;24.30;99.90;;;;;;5029193;28;20205;-70
2021/08/11 12:27:26;;;;;;;3.28;2.97;;;24.30;99.90;;;;;;5029066;28;20208;-71
2021/08/11 12:30:17;;;;;;;3.53;3.33;;;24.50;99.90;;;;;;5028865;28;20248;-71
2021/08/11 12:32:44;;;;;;;4.50;3.25;;;24.60;99.50;;;;;;5028904;28;20209;-71
2021/08/11 12:35:12;;;;;;;3.65;3.22;;;24.70;99.60;;;;;;5028951;28;20294;-70
2021/08/11 12:37:45;;;;;;;3.70;3.40;;;24.60;99.50;;;;;;5028650;28;20306;-70
2021/08/11 12:40:28;;;;;;;3.30;3.00;;;24.70;99.40;;;;;;5028607;28;20225;-70
2021/08/11 12:42:54;;;;;;;3.55;3.08;;;24.70;99.30;;;;;;5028591;28;20596;-70
2021/08/11 12:45:21;;;;;;;3.40;3.15;;;24.60;99.40;;;;;;5028713;28;20259;-71
2021/08/11 12:47:48;;;;;;;3.58;3.33;;;24.60;98.70;;;;;;5028597;28;20258;-71
2021/08/11 12:50:18;;;;;;;3.20;2.92;;;24.40;98.80;;;;;;5028380;28;20247;-71
2021/08/11 12:52:54;;;;;;;4.95;2.80;;;24.30;98.60;;;;;;5028577;28;20201;-70